Main page
METAR-TAF:

METAR-TAF

Airports :

Bad Vöslau Airport

Bad Vöslau, Austria

latitude: 47-57-52N, longitude: 016-15-34E, elevation: 233 m

Current weather observation

The report was made 1 hour and 12 minutes ago, at 14:00 UTC
Wind 8 kt from the Northeast
Temperature 18°C
Humidity 30%
Pressure

METAR: LOAV 281400Z 05008KT 20KM FEW040CU 18/M00

Time: 16:12 (15:12 UTC)

Forecast

The report was made 3 hours and 47 minutes ago, at 11:25 UTC
Forecast valid from 28 at 12 UTC to 28 at 21 UTC
Wind 4 kt from the East
Visibility 10 km or more
Few clouds at a height of 4000 ft
Becoming
from 28 at 14 UTC to 28 at 16 UTC
Wind 6 kt from the Northwest

TAF: LOAV 281125Z 2812/2821 08004KT 9999 FEW040 BECMG 2814/2816 32006KT

Weather observations and forecasts of more than 4000 airports (METAR and TAF reports).

The available stations are represented by yellow and red dots on the map.

Hover mouse over dot to see the name of the station.

Then click to see weather observations and forecasts.

To change the map : click on the green buttons with a black cross to zoom in, on the green button with a dash to zoom out, or on the green arrows for adjacent maps.


METAR-TAF: